Meteo Giornale » Osservazioni meteo Italia » Bari-Palese Macchie

ore: 06:20 - Osservazioni Meteo Bari-Palese Macchie
Lat. 41° 8' N Lon. 16° 47' E Alt. 34 metri s.l.m.

sereno Europe/Rome

2 °C

Sereno

Temp. 24 Ore

2 °C

10 °C

Ovest

11.1 Km/h

Dew point 0 °C

Umidità 86 %

Visibilità  10 Km

Il sole sorge alle ore 07:07

Il sole tramonta alle ore 16:26

Data e Ora Cielo e Fenomeni T °C DP °C Um. % Pres. hPa Vis. km Vento km/h
Oggi h: 06:20 sereno Sereno 2 0 86 1019 10 O 11.1
Oggi h: 05:50 sereno Sereno 2 0 86 1019 10 O 11.1
Oggi h: 05:20 sereno Sereno 2 1 93 1019 10 O 9.3
Oggi h: 04:50 poco_nuvoloso Poco Nuvoloso 2 0 86 1019 10 O/SO 9.3
Oggi h: 04:20 poco_nuvoloso Poco Nuvoloso 3 1 86 1019 10 N 5.5
Oggi h: 03:50 poco_nuvoloso Poco Nuvoloso 3 1 86 1019 10 O/SO 7.4
Oggi h: 02:20 poco_nuvoloso Poco Nuvoloso 4 2 86 1019 10 N 3.7
Oggi h: 01:50 poco_nuvoloso Poco Nuvoloso 6 2 75 1019 10 N 5.5
Oggi h: 00:50 poco_nuvoloso Poco Nuvoloso 6 2 75 1019 10 N/NO 18.5
Oggi h: 00:20 poco_nuvoloso Poco Nuvoloso 5 2 80 1019 10 O/NO 14.8
Ieri h: 23:50 coperto_pioggia Pioggia Debole 6 2 75 1019 10 NO 9.3
Ieri h: 23:20 coperto_pioggia Pioggia 5 3 86 1020 10 N 9.3
Ieri h: 22:50 nuvoloso_temporali Temporale con Pioggia Debole 5 2 80 1020 8 O/NO 11.1
Ieri h: 22:20 coperto_temporali Temporale 4 1 80 1019 10 O 9.3
Ieri h: 21:50 poco_nuvoloso Poco Nuvoloso 4 1 80 1019 10 O 13
Ieri h: 21:20 poco_nuvoloso Poco Nuvoloso 4 1 80 1019 10 O 13
Ieri h: 20:50 poco_nuvoloso Poco Nuvoloso 4 1 80 1018 10 O 11.1
Ieri h: 20:20 poco_nuvoloso Poco Nuvoloso 4 2 86 1018 10 O 13
Ieri h: 19:50 poco_nuvoloso Poco Nuvoloso 5 1 75 1018 10 O 13
Ieri h: 19:20 poco_nuvoloso Poco Nuvoloso 4 1 80 1018 10 O 11.1
Ieri h: 18:50 sereno Sereno 4 1 80 1018 10 O/NO 11.1
Ieri h: 18:20 poco_nuvoloso Poco Nuvoloso 6 1 70 1018 10 NO 11.1
Ieri h: 17:50 poco_nuvoloso Poco Nuvoloso 6 1 70 1018 10 NO 7.4
Ieri h: 17:20 poco_nuvoloso Poco Nuvoloso 7 0 60 1018 10 N 11.1
Ieri h: 16:50 poco_nuvoloso Poco Nuvoloso 8 -2 49 1017 10 O/NO 11.1
Ieri h: 16:20 poco_nuvoloso Poco Nuvoloso 9 2 61 1017 10 N 13
Ieri h: 15:50 poco_nuvoloso Poco Nuvoloso 9 2 61 1017 10 N 27.8
Ieri h: 15:20 poco_nuvoloso Poco Nuvoloso 10 4 66 1017 10 N/NO 20.3
Ieri h: 14:50 poco_nuvoloso Poco Nuvoloso 10 2 57 1017 10 N/NO 22.2
Ieri h: 14:20 poco_nuvoloso Poco Nuvoloso 10 1 53 1016 10 N/NO 20.3
Ieri h: 13:50 poco_nuvoloso Poco Nuvoloso 10 2 57 1016 10 NO 20.3
Ieri h: 13:20 poco_nuvoloso Poco Nuvoloso 10 2 57 1016 10 O/NO 20.3
Ieri h: 12:50 poco_nuvoloso Poco Nuvoloso 10 2 57 1016 10 NO 20.3
Ieri h: 12:20 poco_nuvoloso Poco Nuvoloso 10 2 57 1016 10 O/NO 16.7
Ieri h: 11:50 poco_nuvoloso Poco Nuvoloso 9 4 70 1016 10 O/NO 22.2
Ieri h: 11:20 poco_nuvoloso Poco Nuvoloso 9 3 66 1016 10 O/NO 13
Ieri h: 10:50 poco_nuvoloso Poco Nuvoloso 7 3 75 1017 10 O 14.8
Ieri h: 10:20 nuvoloso Nuvoloso 7 3 75 1017 10 O 14.8
Ieri h: 09:50 nuvoloso Nuvoloso 5 3 86 1017 10 O 16.7
Ieri h: 09:20 nuvoloso Nuvoloso 5 3 86 1017 10 O 14.8
Ieri h: 08:50 coperto_pioggia Pioggia 5 3 86 1017 10 O/NO 22.2
Ieri h: 08:20 molto_nuvoloso Molto Nuvoloso 6 2 75 1017 10 O/NO 27.8
Ieri h: 07:50 coperto_pioggia Pioggia Debole 7 3 75 1017 10 NO 13
Ieri h: 07:20 coperto_pioggia Pioggia 7 3 75 1017 10 NE 11.1
Ieri h: 06:50 nuvoloso_temporali Temporale con Pioggia 8 2 65 1016 10 N/NE 20.3
Ieri h: 06:20 nuvoloso Nuvoloso 7 3 75 1015 10 O/SO 9.3